Flight Track Log - Related Links

Times and Time Zones

All times are in EDT time to prevent confusion due to time zone crossing. See the RPA3392 flight status page for this flight to view local times or setup timezone preferences in your user account.

Time Position Orientation Groundspeed Altitude Reporting Facility
EDT Latitude Longitude Course Direction KTS MPH feet Rate Location/Type
Mon 10:14:28 PM 38.8167 -77.0333 90° East 158 182 1,600  Level Potomac TRACON
Mon 10:16:00 PM 38.9748 -76.6670 57° Northeast  Level FlightAware Approximate
Mon 10:16:19 PM 38.7681 -76.9442 125° Southeast 168 193 5,600  Level Washington Center
Mon 10:17:00 PM 39.0238 -76.5454 67° East  Level FlightAware Approximate
Mon 10:17:21 PM 38.8292 -76.8894 35° Northeast 166 191 9,400  Level Washington Center
Mon 10:18:00 PM 39.0713 -76.4224 61° Northeast  Level FlightAware Approximate
Mon 10:18:21 PM 38.8861 -76.8264 41° Northeast 213 245 11,600  Level Washington Center
Mon 10:19:00 PM 39.1167 -76.2999 90° East  Level FlightAware Approximate
Mon 10:19:21 PM 38.9331 -76.7150 62° Northeast 288 331 13,000  Level Washington Center
Mon 10:20:19 PM 38.9717 -76.5875 69° East 330 380 15,700 2,390 Climbing Washington Center
Mon 10:21:19 PM 39.0103 -76.4597 69° East 367 422 17,700 1,900 Climbing Washington Center
Mon 10:22:19 PM 39.0528 -76.3239 68° East 389 448 19,500 1,525 Climbing Washington Center
Mon 10:23:21 PM 39.0953 -76.1828 69° East 408 470 20,800 1,500 Climbing Washington Center
Mon 10:24:19 PM 39.1458 -76.0331 66° East 429 494 22,500 1,525 Climbing Washington Center
Mon 10:25:19 PM 39.1964 -75.8889 66° East 439 505 23,800 1,250 Climbing Washington Center
Mon 10:26:19 PM 39.2800 -75.7686 48° Northeast 444 511 25,000 600 Climbing Washington Center
Mon 10:27:19 PM 39.3678 -75.6561 45° Northeast 438 504 25,000  Level Washington Center
Mon 10:28:21 PM 39.4553 -75.5406 46° Northeast 438 504 25,000 198 Level Washington Center
Mon 10:29:20 PM 39.5425 -75.4275 45° Northeast 438 504 25,400 950 Climbing Washington Center
Mon 10:30:21 PM 39.6300 -75.3142 45° Northeast 438 504 26,900 807 Climbing Washington Center
Mon 10:31:19 PM 39.7169 -75.1922 47° Northeast 438 504 27,000 296 Climbing Washington Center
Mon 10:31:42 PM 39.7489 -75.1475 47° Northeast 445 512 27,300 1,429 Climbing New York Center
Mon 10:32:43 PM 39.8325 -75.0286 47° Northeast 451 519 29,000 857 Climbing New York Center
Mon 10:33:41 PM 39.9225 -74.9014 47° Northeast 459 528 29,000  Level New York Center
Mon 10:34:43 PM 40.0100 -74.7792 47° Northeast 468 539 29,000  Level New York Center
Mon 10:35:44 PM 40.0975 -74.6539 48° Northeast 468 539 29,000  Level New York Center
Mon 10:36:41 PM 40.2083 -74.5814 27° Northeast 454 522 29,000  Level New York Center
Mon 10:37:43 PM 40.3369 -74.5394 14° North 426 490 29,000  Level New York Center
Mon 10:38:43 PM 40.4547 -74.5050 13° North 426 490 29,000  Level New York Center
Mon 10:39:41 PM 40.5703 -74.4731 12° North 421 484 29,000  Level New York Center
Mon 10:41:25 PM 40.7597 -74.4131 13° North 432 497 29,000 -366 Level Boston Center
Mon 10:42:25 PM 40.8894 -74.3811 11° North 432 497 28,000 -1,100 Descending Boston Center
Mon 10:43:25 PM 41.0131 -74.3436 13° North 432 497 26,800 -1,200 Descending Boston Center
Mon 10:44:25 PM 41.1261 -74.3083 13° North 427 491 25,600 -1,200 Descending Boston Center
Mon 10:45:25 PM 41.2372 -74.2758 12° North 416 479 24,400 -1,150 Descending Boston Center
Mon 10:46:25 PM 41.3461 -74.2400 14° North 408 470 23,300 -1,000 Descending Boston Center
Mon 10:47:37 PM 41.4572 -74.2044 13° North 397 457 22,200 -1,182 Descending Boston Center
Mon 10:48:37 PM 41.5811 -74.1331 23° Northeast 397 457 20,700 -1,300 Descending Boston Center
Mon 10:49:37 PM 41.6800 -74.0633 28° Northeast 403 464 19,600 -1,100 Descending Boston Center
Mon 10:50:37 PM 41.7769 -73.9961 27° Northeast 398 458 18,500 -992 Descending Boston Center
Mon 10:51:38 PM 41.8633 -73.9369 27° Northeast 387 445 17,600 -1,266 Descending Boston Center
Mon 10:52:26 PM 41.9533 -73.8917 21° North 383 441 16,200 -1,826 Descending Boston Center
Mon 10:53:33 PM 42.0642 -73.8747 North 367 422 14,100 -1,890 Descending Boston Center
Mon 10:54:33 PM 42.1706 -73.8603 North 360 414 12,200 -1,289 Descending Boston Center
Mon 10:55:34 PM 42.2542 -73.8453 North 288 331 11,500 -1,279 Descending Boston Center
Mon 10:56:35 PM 42.3333 -73.8386 North 270 311 9,600 -1,785 Descending Boston Center
Mon 10:57:35 PM 42.4106 -73.8319 North 275 316 7,900 -1,785 Descending Boston Center
Mon 10:58:36 PM 42.4836 -73.8308 North 269 310 6,000 -1,313 Descending Boston Center
Mon 10:59:43 PM 42.5567 -73.8100 12° North 215 247 5,100 -1,039 Descending Boston Center
Mon 11:00:43 PM 42.6069 -73.8025 North 166 191 3,800 -1,587 Descending Boston Center
Mon 11:01:44 PM 42.6528 -73.8036 359° North 162 186 1,900 -1,869 Descending Boston Center

Login

Don't have an account? Register now (free) for customized features, flight alerts, and more!